createdAt,value
2023-03-26T00:01:52.809Z,6.50
2023-03-26T00:04:33.447Z,4.70
2023-03-26T00:07:10.934Z,5.00
2023-03-26T00:09:47.256Z,4.90
2023-03-26T00:12:20.271Z,4.10
2023-03-26T00:14:52.830Z,4.10
2023-03-26T00:17:26.657Z,4.60
2023-03-26T00:20:43.185Z,4.10
2023-03-26T00:24:15.134Z,4.00
2023-03-26T00:26:53.503Z,5.30
2023-03-26T00:29:28.143Z,4.60
2023-03-26T00:32:01.838Z,3.50
2023-03-26T00:34:34.573Z,3.70
2023-03-26T00:37:04.941Z,4.70
2023-03-26T00:39:36.494Z,4.10
2023-03-26T00:42:06.988Z,4.40
2023-03-26T00:44:34.844Z,4.90
2023-03-26T00:47:03.734Z,3.10
2023-03-26T00:49:32.104Z,3.20
2023-03-26T00:52:03.570Z,5.20
2023-03-26T00:54:37.067Z,4.70
2023-03-26T00:57:06.763Z,5.10
2023-03-26T00:59:36.492Z,4.40
2023-03-26T01:02:04.764Z,3.90
2023-03-26T01:04:35.315Z,6.30
2023-03-26T01:07:22.670Z,3.30
2023-03-26T01:10:09.433Z,3.90
2023-03-26T01:12:37.252Z,3.90
2023-03-26T01:15:05.372Z,4.70
2023-03-26T01:17:38.042Z,3.90
2023-03-26T01:20:26.562Z,6.20
2023-03-26T01:22:56.400Z,3.70
2023-03-26T01:25:23.777Z,4.40
2023-03-26T01:27:52.544Z,4.80
2023-03-26T01:30:37.184Z,5.10
2023-03-26T01:33:33.953Z,4.10
2023-03-26T01:36:17.050Z,5.00
2023-03-26T01:38:48.376Z,4.10
2023-03-26T01:41:32.984Z,3.90
2023-03-26T01:44:07.116Z,5.50
2023-03-26T01:46:36.457Z,4.30
2023-03-26T01:49:05.016Z,4.10
2023-03-26T01:51:34.803Z,5.40
2023-03-26T01:54:04.285Z,6.40
2023-03-26T01:56:53.469Z,6.80
2023-03-26T01:59:45.543Z,4.40
2023-03-26T02:02:26.771Z,4.00
2023-03-26T02:05:16.185Z,5.00
2023-03-26T02:08:07.906Z,4.80
2023-03-26T02:10:45.424Z,5.20
2023-03-26T02:13:13.119Z,4.00
2023-03-26T02:15:41.465Z,3.30
2023-03-26T02:18:13.430Z,4.30
2023-03-26T02:20:41.877Z,3.60
2023-03-26T02:23:09.962Z,4.90
2023-03-26T02:25:43.871Z,4.30
2023-03-26T02:28:22.265Z,4.10
2023-03-26T02:31:01.918Z,3.70
2023-03-26T02:33:39.786Z,4.20
2023-03-26T02:36:14.103Z,5.60
2023-03-26T02:39:05.167Z,3.30
2023-03-26T02:41:42.244Z,6.30
2023-03-26T02:44:15.078Z,4.60
2023-03-26T02:47:46.423Z,4.80
2023-03-26T02:50:36.896Z,4.20
2023-03-26T02:53:54.000Z,5.20
2023-03-26T02:56:46.740Z,5.40
2023-03-26T02:59:40.106Z,5.90
2023-03-26T03:02:29.513Z,4.70
2023-03-26T03:05:12.315Z,3.60
2023-03-26T03:07:48.457Z,4.20
2023-03-26T03:11:05.572Z,3.30
2023-03-26T03:13:42.656Z,4.30
2023-03-26T03:16:23.040Z,4.40
2023-03-26T03:18:59.993Z,4.40
2023-03-26T03:21:38.710Z,3.70
2023-03-26T03:24:43.832Z,5.00
2023-03-26T03:27:26.870Z,6.10
2023-03-26T03:30:03.000Z,5.20
2023-03-26T03:32:53.867Z,4.20
2023-03-26T03:35:54.038Z,6.20
2023-03-26T03:38:34.350Z,3.90
2023-03-26T03:41:23.766Z,3.70
2023-03-26T03:43:59.439Z,4.90
2023-03-26T03:46:35.856Z,5.40
2023-03-26T03:49:12.716Z,4.70
2023-03-26T03:51:41.253Z,4.00
2023-03-26T03:54:30.520Z,5.90
2023-03-26T03:57:19.351Z,4.80
2023-03-26T04:00:00.605Z,4.10
2023-03-26T04:02:38.456Z,4.20
2023-03-26T04:05:07.516Z,6.20
2023-03-26T04:07:39.639Z,6.30
2023-03-26T04:10:08.244Z,4.40
2023-03-26T04:12:55.458Z,5.00
2023-03-26T04:15:36.927Z,6.50
2023-03-26T04:18:04.619Z,4.90
2023-03-26T04:20:33.924Z,6.70
2023-03-26T04:23:01.690Z,4.60
2023-03-26T04:25:33.266Z,6.70
2023-03-26T04:28:36.514Z,8.00
2023-03-26T04:31:39.842Z,6.40
2023-03-26T04:34:13.713Z,7.20
2023-03-26T04:36:54.711Z,4.80
2023-03-26T04:39:29.413Z,5.70
2023-03-26T04:42:28.672Z,6.30
2023-03-26T04:45:15.764Z,6.80
2023-03-26T04:47:49.134Z,5.20
2023-03-26T04:50:30.826Z,5.70
2023-03-26T04:53:19.381Z,5.60
2023-03-26T04:56:37.574Z,6.00
2023-03-26T04:59:35.317Z,5.40
2023-03-26T05:02:14.866Z,5.20
2023-03-26T05:04:51.783Z,5.90
2023-03-26T05:07:24.301Z,6.00
2023-03-26T05:09:59.197Z,6.30
2023-03-26T05:13:21.711Z,4.90
2023-03-26T05:15:53.632Z,8.30
2023-03-26T05:18:46.781Z,6.80
2023-03-26T05:21:14.716Z,5.40
2023-03-26T05:24:05.711Z,6.00
2023-03-26T05:26:34.220Z,5.30
2023-03-26T05:29:03.116Z,4.80
2023-03-26T05:31:44.587Z,4.30
2023-03-26T05:34:14.641Z,5.30
2023-03-26T05:36:44.329Z,6.40
2023-03-26T05:39:31.978Z,5.00
2023-03-26T05:42:09.464Z,4.20
2023-03-26T05:45:02.711Z,3.40
2023-03-26T05:47:31.108Z,4.10
2023-03-26T05:50:08.025Z,5.80
2023-03-26T05:52:37.060Z,5.50
2023-03-26T05:55:34.993Z,4.30
2023-03-26T05:58:43.712Z,5.10
2023-03-26T06:01:31.008Z,4.90
2023-03-26T06:04:36.850Z,4.70
2023-03-26T06:07:43.132Z,3.10
2023-03-26T06:10:21.162Z,4.40
2023-03-26T06:12:49.808Z,4.70
2023-03-26T06:15:25.049Z,5.40
2023-03-26T06:18:07.701Z,4.60
2023-03-26T06:20:58.086Z,4.80
2023-03-26T06:23:51.853Z,3.90
2023-03-26T06:26:43.211Z,4.50
2023-03-26T06:29:24.529Z,4.60
2023-03-26T06:32:12.309Z,4.30
2023-03-26T06:35:30.542Z,4.70
2023-03-26T06:37:58.924Z,4.00
2023-03-26T06:40:31.202Z,3.40
2023-03-26T06:43:20.604Z,4.40
2023-03-26T06:45:55.873Z,4.50
2023-03-26T06:49:04.073Z,4.20
2023-03-26T06:51:50.660Z,5.40
2023-03-26T06:54:44.797Z,5.20
2023-03-26T06:57:34.591Z,3.60
2023-03-26T07:00:24.207Z,5.40
2023-03-26T07:03:11.651Z,4.00
2023-03-26T07:06:13.422Z,3.70
2023-03-26T07:09:10.075Z,4.40
2023-03-26T07:12:20.481Z,4.50
2023-03-26T07:15:04.182Z,3.70
2023-03-26T07:18:02.603Z,3.90
2023-03-26T07:20:33.418Z,3.50
2023-03-26T07:23:01.127Z,4.40
2023-03-26T07:25:48.466Z,4.90
2023-03-26T07:28:34.148Z,3.00
2023-03-26T07:31:16.239Z,4.40
2023-03-26T07:33:55.762Z,4.80
2023-03-26T07:37:04.580Z,3.80
2023-03-26T07:40:23.089Z,3.70
2023-03-26T07:43:26.954Z,4.30
2023-03-26T07:46:34.996Z,3.90
2023-03-26T07:49:59.079Z,4.80
2023-03-26T07:52:59.044Z,5.70
2023-03-26T07:56:00.838Z,4.50
2023-03-26T07:59:11.845Z,3.40
2023-03-26T08:02:17.076Z,3.70
2023-03-26T08:05:40.356Z,3.40
2023-03-26T08:08:36.756Z,2.70
2023-03-26T08:11:39.795Z,4.00
2023-03-26T08:14:38.260Z,3.80
2023-03-26T08:17:38.229Z,2.90
2023-03-26T08:20:35.865Z,3.20
2023-03-26T08:23:24.991Z,4.30
2023-03-26T08:25:59.514Z,4.40
2023-03-26T08:29:26.771Z,4.00
2023-03-26T08:32:09.867Z,4.20
2023-03-26T08:37:18.034Z,4.10
2023-03-26T08:39:48.290Z,3.50
2023-03-26T08:42:41.086Z,3.40
2023-03-26T08:45:30.354Z,4.30
2023-03-26T08:48:11.361Z,5.30
2023-03-26T08:50:58.242Z,4.40
2023-03-26T08:53:40.926Z,3.40
2023-03-26T08:56:36.046Z,2.80
2023-03-26T08:59:39.060Z,4.50
2023-03-26T09:02:31.423Z,5.10
2023-03-26T09:05:11.755Z,4.80
2023-03-26T09:08:32.875Z,4.90
2023-03-26T09:11:26.193Z,4.00
2023-03-26T09:14:29.485Z,5.40
2023-03-26T09:17:45.129Z,2.70
2023-03-26T09:20:58.907Z,2.90
2023-03-26T09:24:00.216Z,3.60
2023-03-26T09:27:04.452Z,2.90
2023-03-26T09:29:53.642Z,3.10
2023-03-26T09:32:33.390Z,2.90
2023-03-26T09:35:47.223Z,2.70
2023-03-26T09:38:33.283Z,2.30
2023-03-26T09:41:17.915Z,2.90
2023-03-26T09:43:48.901Z,2.30
2023-03-26T09:46:32.252Z,2.00
2023-03-26T09:49:26.811Z,1.80
2023-03-26T09:52:32.145Z,2.40
2023-03-26T09:55:15.548Z,4.10
2023-03-26T09:57:53.900Z,2.90
2023-03-26T10:00:44.247Z,3.20
2023-03-26T10:03:44.975Z,1.80
2023-03-26T10:06:34.004Z,2.30
2023-03-26T10:09:03.394Z,2.10
2023-03-26T10:11:56.838Z,2.00
2023-03-26T10:14:45.157Z,1.70
2023-03-26T10:17:33.858Z,1.70
2023-03-26T10:20:41.690Z,2.10
2023-03-26T10:23:50.970Z,2.40
2023-03-26T10:26:24.719Z,1.90
2023-03-26T10:29:34.086Z,1.60
2023-03-26T10:32:17.283Z,1.80
2023-03-26T10:34:47.566Z,2.10
2023-03-26T10:37:50.190Z,2.50
2023-03-26T10:40:31.875Z,2.20
2023-03-26T10:43:40.585Z,2.70
2023-03-26T10:46:20.353Z,2.40
2023-03-26T10:49:12.796Z,3.50
2023-03-26T10:51:51.574Z,2.50
2023-03-26T10:54:58.488Z,2.00
2023-03-26T10:57:28.368Z,2.10
2023-03-26T10:59:57.569Z,3.00
2023-03-26T11:05:27.901Z,2.20
2023-03-26T11:08:13.045Z,2.00
2023-03-26T11:10:57.469Z,3.00
2023-03-26T11:13:43.291Z,2.50
2023-03-26T11:16:22.007Z,1.70
2023-03-26T11:19:11.039Z,1.40
2023-03-26T11:21:59.464Z,1.70
2023-03-26T11:24:33.564Z,1.90
2023-03-26T11:27:15.532Z,1.80
2023-03-26T11:30:11.858Z,2.40
2023-03-26T11:32:45.401Z,1.70
2023-03-26T11:35:40.540Z,2.40
2023-03-26T11:38:29.865Z,1.00
2023-03-26T11:40:57.421Z,2.50
2023-03-26T11:43:43.532Z,1.70
2023-03-26T11:46:13.014Z,2.10
2023-03-26T11:48:45.008Z,1.50
2023-03-26T11:51:19.243Z,3.00
2023-03-26T11:53:47.388Z,2.30
2023-03-26T11:56:23.435Z,1.10
2023-03-26T11:59:05.583Z,1.70
2023-03-26T12:01:52.825Z,2.80
2023-03-26T12:04:35.218Z,1.90
2023-03-26T12:09:37.273Z,1.20
2023-03-26T12:12:13.254Z,1.60
2023-03-26T12:14:42.515Z,3.40
2023-03-26T12:17:31.985Z,4.70
2023-03-26T12:19:59.377Z,2.60
2023-03-26T12:22:36.422Z,2.00
2023-03-26T12:25:26.005Z,1.30
2023-03-26T12:28:04.074Z,3.20
2023-03-26T12:31:04.003Z,2.40
2023-03-26T12:33:38.812Z,1.80
2023-03-26T12:36:26.469Z,1.00
2023-03-26T12:39:17.091Z,3.10
2023-03-26T12:44:42.132Z,1.70
2023-03-26T12:44:52.814Z,1.20
2023-03-26T12:47:59.994Z,1.20
2023-03-26T12:52:53.121Z,2.40
2023-03-26T12:55:39.869Z,2.10
2023-03-26T12:58:22.488Z,2.10
2023-03-26T13:00:56.105Z,2.20
2023-03-26T13:03:37.997Z,2.20
2023-03-26T13:06:58.939Z,1.80
2023-03-26T13:09:37.958Z,2.30
2023-03-26T13:12:12.238Z,3.90
2023-03-26T13:14:54.770Z,3.20
2023-03-26T13:17:52.842Z,1.90
2023-03-26T13:20:51.506Z,3.70
2023-03-26T13:23:26.768Z,6.10
2023-03-26T13:26:07.017Z,2.10
2023-03-26T13:29:01.072Z,2.20
2023-03-26T13:31:35.138Z,2.80
2023-03-26T13:34:16.175Z,1.60
2023-03-26T13:36:59.916Z,1.20
2023-03-26T13:39:38.875Z,2.60
2023-03-26T13:42:18.764Z,1.90
2023-03-26T13:44:48.616Z,4.10
2023-03-26T13:47:20.678Z,2.70
2023-03-26T13:49:53.032Z,2.20
2023-03-26T13:52:35.415Z,2.50
2023-03-26T13:55:31.187Z,3.00
2023-03-26T13:58:05.340Z,1.50
2023-03-26T14:00:47.789Z,3.80
2023-03-26T14:03:26.866Z,2.40
2023-03-26T14:05:55.651Z,2.30
2023-03-26T14:08:33.430Z,3.80
2023-03-26T14:11:28.626Z,2.00
2023-03-26T14:14:06.921Z,2.70
2023-03-26T14:16:38.533Z,2.20
2023-03-26T14:19:24.835Z,1.90
2023-03-26T14:22:04.905Z,1.50
2023-03-26T14:24:43.124Z,2.40
2023-03-26T14:27:41.408Z,1.80
2023-03-26T14:30:23.148Z,1.60
2023-03-26T14:33:30.366Z,1.40
2023-03-26T14:36:01.171Z,2.60
2023-03-26T14:38:56.804Z,1.80
2023-03-26T14:41:23.797Z,2.30
2023-03-26T14:44:09.752Z,2.70
2023-03-26T14:46:46.520Z,1.70
2023-03-26T14:49:39.991Z,1.30
2023-03-26T14:52:39.529Z,1.30
2023-03-26T14:55:16.947Z,1.50
2023-03-26T14:57:51.437Z,1.70
2023-03-26T15:00:28.042Z,1.70
2023-03-26T15:03:08.249Z,1.70
2023-03-26T15:06:18.713Z,0.90
2023-03-26T15:08:58.718Z,2.10
2023-03-26T15:11:45.335Z,2.40
2023-03-26T15:14:34.036Z,1.70
2023-03-26T15:17:23.114Z,0.90
2023-03-26T15:20:02.644Z,0.80
2023-03-26T15:22:48.969Z,1.00
2023-03-26T15:25:22.265Z,1.00
2023-03-26T15:28:09.659Z,1.60
2023-03-26T15:31:07.493Z,1.60
2023-03-26T15:33:45.735Z,3.50
2023-03-26T15:36:28.294Z,2.10
2023-03-26T15:39:20.001Z,2.30
2023-03-26T15:41:47.382Z,3.20
2023-03-26T15:44:25.581Z,3.30
2023-03-26T15:47:02.118Z,3.20
2023-03-26T15:49:42.981Z,5.30
2023-03-26T15:52:22.147Z,2.30
2023-03-26T15:55:27.908Z,2.50
2023-03-26T15:58:10.300Z,2.10
2023-03-26T16:00:42.235Z,3.80
2023-03-26T16:03:10.093Z,5.20
2023-03-26T16:06:14.251Z,3.10
2023-03-26T16:09:25.877Z,3.40
2023-03-26T16:12:31.891Z,3.60
2023-03-26T16:15:28.440Z,3.40
2023-03-26T16:18:12.017Z,3.50
2023-03-26T16:20:51.064Z,4.10
2023-03-26T16:23:31.041Z,3.80
2023-03-26T16:26:09.560Z,3.20
2023-03-26T16:28:49.531Z,4.40
2023-03-26T16:31:36.787Z,4.60
2023-03-26T16:34:03.420Z,4.90
2023-03-26T16:36:34.617Z,11.80
2023-03-26T16:39:10.416Z,12.50
2023-03-26T16:41:45.353Z,12.90
2023-03-26T16:44:13.910Z,12.50
2023-03-26T16:46:43.439Z,17.40
2023-03-26T16:49:18.479Z,18.50
2023-03-26T16:51:51.668Z,19.40
2023-03-26T16:54:25.245Z,18.10
2023-03-26T16:57:28.064Z,12.30
2023-03-26T17:00:16.680Z,15.70
2023-03-26T17:02:48.307Z,9.00
2023-03-26T17:05:51.224Z,6.60
2023-03-26T17:08:37.100Z,6.90
2023-03-26T17:11:38.391Z,7.50
2023-03-26T17:14:17.629Z,6.60
2023-03-26T17:17:03.027Z,10.60
2023-03-26T17:19:42.392Z,33.50
2023-03-26T17:22:21.586Z,43.00
2023-03-26T17:25:21.008Z,36.10
2023-03-26T17:28:21.240Z,20.60
2023-03-26T17:31:11.029Z,27.30
2023-03-26T17:33:44.809Z,19.70
2023-03-26T17:36:12.051Z,19.50
2023-03-26T17:38:47.421Z,12.90
2023-03-26T17:41:17.872Z,12.70
2023-03-26T17:43:52.420Z,30.50
2023-03-26T17:46:21.010Z,19.80
2023-03-26T17:48:57.052Z,21.50
2023-03-26T17:51:58.101Z,20.10
2023-03-26T17:54:39.470Z,24.90
2023-03-26T17:57:14.663Z,26.00
2023-03-26T17:59:43.235Z,29.50
2023-03-26T18:02:18.643Z,25.30
2023-03-26T18:04:48.353Z,25.20
2023-03-26T18:07:45.214Z,28.90
2023-03-26T18:10:47.064Z,35.30
2023-03-26T18:16:03.720Z,37.00
2023-03-26T18:18:31.154Z,45.50
2023-03-26T18:20:58.849Z,38.40
2023-03-26T18:23:38.913Z,46.80
2023-03-26T18:26:14.265Z,39.70
2023-03-26T18:28:53.292Z,11.90
2023-03-26T18:31:25.005Z,11.90
2023-03-26T18:33:59.178Z,9.50
2023-03-26T18:36:27.936Z,4.90
2023-03-26T18:38:58.801Z,5.50
2023-03-26T18:41:31.286Z,6.90
2023-03-26T18:44:03.148Z,4.40
2023-03-26T18:46:35.837Z,5.60
2023-03-26T18:49:08.968Z,4.50
2023-03-26T18:51:46.480Z,6.20
2023-03-26T18:54:23.650Z,6.00
2023-03-26T18:57:31.607Z,3.20
2023-03-26T19:00:20.164Z,3.50
2023-03-26T19:02:49.827Z,3.00
2023-03-26T19:05:17.640Z,4.50
2023-03-26T19:07:50.272Z,4.30
2023-03-26T19:10:22.345Z,4.20
2023-03-26T19:12:59.112Z,4.40
2023-03-26T19:15:29.983Z,8.00
2023-03-26T19:18:06.986Z,9.10
2023-03-26T19:20:48.843Z,8.70
2023-03-26T19:23:18.290Z,11.00
2023-03-26T19:25:57.282Z,10.70
2023-03-26T19:28:33.044Z,8.80
2023-03-26T19:31:28.357Z,10.40
2023-03-26T19:33:59.371Z,18.80
2023-03-26T19:36:30.300Z,13.40
2023-03-26T19:39:00.886Z,15.10
2023-03-26T19:41:42.748Z,16.60
2023-03-26T19:44:33.945Z,14.70
2023-03-26T19:47:07.032Z,12.90
2023-03-26T19:49:54.637Z,29.30
2023-03-26T19:52:27.959Z,22.80
2023-03-26T19:55:22.622Z,16.50
2023-03-26T19:57:49.882Z,13.70
2023-03-26T20:00:19.097Z,10.30
2023-03-26T20:02:47.145Z,6.30
2023-03-26T20:05:26.067Z,3.80
2023-03-26T20:07:59.846Z,2.90
2023-03-26T20:10:30.647Z,2.60
2023-03-26T20:12:58.457Z,3.70
2023-03-26T20:15:32.397Z,4.10
2023-03-26T20:18:01.414Z,4.00
2023-03-26T20:20:29.091Z,3.10
2023-03-26T20:22:56.452Z,3.10
2023-03-26T20:25:31.120Z,2.70
2023-03-26T20:28:03.308Z,2.70
2023-03-26T20:30:37.711Z,2.50
2023-03-26T20:33:25.432Z,2.90
2023-03-26T20:35:56.864Z,2.90
2023-03-26T20:38:38.969Z,3.20
2023-03-26T20:41:17.656Z,3.50
2023-03-26T20:43:47.274Z,2.80
2023-03-26T20:46:30.984Z,22.20
2023-03-26T20:49:01.133Z,6.40
2023-03-26T20:51:33.673Z,6.70
2023-03-26T20:54:08.968Z,4.90
2023-03-26T20:56:42.402Z,7.40
2023-03-26T20:59:12.831Z,5.60
2023-03-26T21:01:49.926Z,3.80
2023-03-26T21:04:21.706Z,2.80
2023-03-26T21:07:07.189Z,4.80
2023-03-26T21:10:11.721Z,8.90
2023-03-26T21:13:08.325Z,5.10
2023-03-26T21:15:40.929Z,3.60
2023-03-26T21:18:17.355Z,4.00
2023-03-26T21:20:52.542Z,4.70
2023-03-26T21:23:36.827Z,4.80
2023-03-26T21:26:25.301Z,3.50
2023-03-26T21:28:53.922Z,4.30
2023-03-26T21:31:26.533Z,5.10
2023-03-26T21:33:55.412Z,5.30
2023-03-26T21:36:26.180Z,6.50
2023-03-26T21:39:05.478Z,14.60
2023-03-26T21:42:04.987Z,8.90
2023-03-26T21:44:59.097Z,8.10
2023-03-26T21:47:37.056Z,20.40
2023-03-26T21:50:25.608Z,16.70
2023-03-26T21:52:59.327Z,4.90
2023-03-26T21:55:30.827Z,6.40
2023-03-26T21:58:41.188Z,7.90
2023-03-26T22:01:56.079Z,10.10
2023-03-26T22:04:34.840Z,13.10
2023-03-26T22:07:12.095Z,10.70
2023-03-26T22:09:45.280Z,11.70
2023-03-26T22:12:15.155Z,12.00
2023-03-26T22:14:47.894Z,11.80
2023-03-26T22:17:15.178Z,12.30
2023-03-26T22:20:02.367Z,11.50
2023-03-26T22:22:29.795Z,12.10
2023-03-26T22:25:02.358Z,8.40
2023-03-26T22:27:44.926Z,5.40
2023-03-26T22:30:13.276Z,4.90
2023-03-26T22:32:45.782Z,8.60
2023-03-26T22:35:13.546Z,9.90
2023-03-26T22:37:43.925Z,10.00
2023-03-26T22:40:38.792Z,12.50
2023-03-26T22:43:11.496Z,9.30
2023-03-26T22:45:49.578Z,10.60
2023-03-26T22:48:20.029Z,8.00
2023-03-26T22:51:05.617Z,8.90
2023-03-26T22:53:56.443Z,7.20
2023-03-26T22:56:35.072Z,6.70
2023-03-26T22:59:14.244Z,5.50
2023-03-26T23:01:42.025Z,5.70
2023-03-26T23:04:12.234Z,8.20
2023-03-26T23:07:29.360Z,10.10
2023-03-26T23:10:16.661Z,8.80
2023-03-26T23:13:19.598Z,10.70
2023-03-26T23:16:00.108Z,13.80
2023-03-26T23:18:49.885Z,17.10
2023-03-26T23:21:23.048Z,19.70
2023-03-26T23:24:00.139Z,30.20
2023-03-26T23:26:43.859Z,14.90
2023-03-26T23:29:22.904Z,12.80
2023-03-26T23:31:54.745Z,6.40
2023-03-26T23:34:51.675Z,10.10
2023-03-26T23:37:35.189Z,9.70
2023-03-26T23:40:10.420Z,10.10
2023-03-26T23:42:38.052Z,9.20
2023-03-26T23:45:10.012Z,6.70
2023-03-26T23:47:59.483Z,6.10
2023-03-26T23:50:30.363Z,5.60
2023-03-26T23:53:28.873Z,6.20
2023-03-26T23:56:13.337Z,5.80
2023-03-26T23:58:50.318Z,6.30
